ETHL

Laupheim Airport

Germany
METAR ETHL 141320Z 34006KT 9999 SCT050 23/09 Q1016 BLU+BLU+
Observed Flight Rules
Aug-14 @ 13:20 UTC (22 minutes ago) Visual Flight Rules
Wind Visibility Clouds
340° at 6 knots 10,000+ meters
  • Scattered at 5,000' AGL
Temperatures Readings
Current 23°C / 73°F
Dewpoint 9°C / 48°F
Humidity 41%
Altimeter 30" Hg
Pressure 1016 hPa
Elevation 549
METAR ETHL 141320Z 34006KT 9999 SCT050 23/09 Q1016 BLU+BLU+
Observed Flight Rules
Aug-14 @ 13:20 UTC
(22 minutes ago)
VFR
Wind Visibility
340° at 6 knots 10,000+ meters
Clouds
  • Scattered at 5,000' AGL
Temperature Dewpoint
23°C / 73°F 9°C / 48°F
Humidity Altimeter Pressure
41% 30" Hg 1016 hPa